createdAt,value
2018-04-02T00:00:11.059Z,27.95
2018-04-02T00:02:38.619Z,26.08
2018-04-02T00:05:06.239Z,29.95
2018-04-02T00:07:33.800Z,26.62
2018-04-02T00:10:01.462Z,30.45
2018-04-02T00:12:29.063Z,29.90
2018-04-02T00:14:56.631Z,33.92
2018-04-02T00:17:24.213Z,23.98
2018-04-02T00:19:51.954Z,30.08
2018-04-02T00:22:19.511Z,30.52
2018-04-02T00:24:47.090Z,35.30
2018-04-02T00:27:14.660Z,29.20
2018-04-02T00:29:42.251Z,37.22
2018-04-02T00:32:09.846Z,29.02
2018-04-02T00:34:37.407Z,35.40
2018-04-02T00:37:04.986Z,32.40
2018-04-02T00:39:32.536Z,33.33
2018-04-02T00:42:00.198Z,29.35
2018-04-02T00:44:27.759Z,39.40
2018-04-02T00:46:55.312Z,36.88
2018-04-02T00:49:22.878Z,33.15
2018-04-02T00:51:50.743Z,25.48
2018-04-02T00:57:09.061Z,25.73
2018-04-02T00:59:36.612Z,34.05
2018-04-02T01:02:04.183Z,32.42
2018-04-02T01:04:31.731Z,27.40
2018-04-02T01:06:59.283Z,29.92
2018-04-02T01:09:26.860Z,27.35
2018-04-02T01:11:54.411Z,25.55
2018-04-02T01:14:22.229Z,31.87
2018-04-02T01:16:49.779Z,28.55
2018-04-02T01:19:17.340Z,32.08
2018-04-02T01:21:45.006Z,28.45
2018-04-02T01:24:12.563Z,27.48
2018-04-02T01:26:40.234Z,29.85
2018-04-02T01:29:07.790Z,35.67
2018-04-02T01:31:35.365Z,38.63
2018-04-02T01:34:02.943Z,29.40
2018-04-02T01:36:30.490Z,26.10
2018-04-02T01:38:58.165Z,36.60
2018-04-02T01:41:25.719Z,33.88
2018-04-02T01:43:53.271Z,30.12
2018-04-02T01:46:20.855Z,24.20
2018-04-02T01:48:48.403Z,32.33
2018-04-02T01:51:16.231Z,27.02
2018-04-02T01:53:43.779Z,36.75
2018-04-02T01:56:11.362Z,28.10
2018-04-02T01:58:38.946Z,26.42
2018-04-02T02:01:06.499Z,25.75
2018-04-02T02:03:34.238Z,24.27
2018-04-02T02:06:01.786Z,29.48
2018-04-02T02:08:29.411Z,31.80
2018-04-02T02:10:56.991Z,27.13
2018-04-02T02:13:24.551Z,35.63
2018-04-02T02:15:52.142Z,30.15
2018-04-02T02:18:19.704Z,24.92
2018-04-02T02:20:47.262Z,29.95
2018-04-02T02:23:14.850Z,28.30
2018-04-02T02:25:42.410Z,32.50
2018-04-02T02:28:10.250Z,33.83
2018-04-02T02:30:37.811Z,25.48
2018-04-02T02:33:05.375Z,30.58
2018-04-02T02:35:33.833Z,35.65
2018-04-02T02:38:01.378Z,32.03
2018-04-02T02:40:29.173Z,28.95
2018-04-02T02:42:56.751Z,29.95
2018-04-02T02:45:24.327Z,28.17
2018-04-02T02:47:51.913Z,26.65
2018-04-02T02:50:19.475Z,26.45
2018-04-02T02:52:47.170Z,29.05
2018-04-02T02:55:14.730Z,32.65
2018-04-02T02:57:42.279Z,30.40
2018-04-02T03:00:09.868Z,31.48
2018-04-02T03:02:37.419Z,27.25
2018-04-02T03:05:05.007Z,39.13
2018-04-02T03:07:32.616Z,37.42
2018-04-02T03:10:00.168Z,32.00
2018-04-02T03:12:27.747Z,36.58
2018-04-02T03:14:55.299Z,31.35
2018-04-02T03:17:22.878Z,31.50
2018-04-02T03:19:50.447Z,29.52
2018-04-02T03:22:18.002Z,24.95
2018-04-02T03:24:45.741Z,34.00
2018-04-02T03:27:13.299Z,34.50
2018-04-02T03:29:40.894Z,35.13
2018-04-02T03:32:08.450Z,34.30
2018-04-02T03:34:36.006Z,29.25
2018-04-02T03:37:03.584Z,45.08
2018-04-02T03:39:31.143Z,33.22
2018-04-02T03:41:58.739Z,33.58
2018-04-02T03:44:26.291Z,31.77
2018-04-02T03:46:53.852Z,34.45
2018-04-02T03:49:21.420Z,36.63
2018-04-02T03:51:48.975Z,28.55
2018-04-02T03:54:16.663Z,30.67
2018-04-02T03:56:44.226Z,28.58
2018-04-02T03:59:12.566Z,38.42
2018-04-02T04:01:40.135Z,41.75
2018-04-02T04:04:07.688Z,31.70
2018-04-02T04:06:35.266Z,35.90
2018-04-02T04:09:02.826Z,36.80
2018-04-02T04:11:30.382Z,30.80
2018-04-02T04:13:57.956Z,32.10
2018-04-02T04:16:25.503Z,25.83
2018-04-02T04:18:53.369Z,32.53
2018-04-02T04:21:20.919Z,31.55
2018-04-02T04:23:48.477Z,25.70
2018-04-02T04:26:16.051Z,25.48
2018-04-02T04:28:43.924Z,27.17
2018-04-02T04:31:11.884Z,26.90
2018-04-02T04:33:39.471Z,29.15
2018-04-02T04:36:07.039Z,28.10
2018-04-02T04:38:34.610Z,23.80
2018-04-02T04:41:02.158Z,23.75
2018-04-02T04:43:30.501Z,29.77
2018-04-02T04:45:58.160Z,29.37
2018-04-02T04:48:27.392Z,23.33
2018-04-02T04:50:55.010Z,24.55
2018-04-02T04:53:22.885Z,23.92
2018-04-02T04:55:50.478Z,30.37
2018-04-02T04:58:18.031Z,25.60
2018-04-02T05:00:45.583Z,26.12
2018-04-02T05:03:13.179Z,20.80
2018-04-02T05:05:41.643Z,23.80
2018-04-02T05:08:09.454Z,24.83
2018-04-02T05:10:37.006Z,20.05
2018-04-02T05:13:04.559Z,23.23
2018-04-02T05:15:32.178Z,19.12
2018-04-02T05:17:59.739Z,19.85
2018-04-02T05:20:27.474Z,24.77
2018-04-02T05:22:55.018Z,15.68
2018-04-02T05:25:22.576Z,25.17
2018-04-02T05:27:50.151Z,26.50
2018-04-02T05:30:17.714Z,26.17
2018-04-02T05:32:45.682Z,20.15
2018-04-02T05:35:14.158Z,19.87
2018-04-02T05:37:41.706Z,15.15
2018-04-02T05:40:09.274Z,14.25
2018-04-02T05:42:36.823Z,16.73
2018-04-02T05:45:04.401Z,17.60
2018-04-02T05:47:31.943Z,16.77
2018-04-02T05:49:59.505Z,21.70
2018-04-02T05:52:27.071Z,18.15
2018-04-02T05:54:54.624Z,21.52
2018-04-02T05:57:22.294Z,26.90
2018-04-02T05:59:49.839Z,17.73
2018-04-02T06:02:17.398Z,21.62
2018-04-02T06:04:44.970Z,15.80
2018-04-02T06:07:12.523Z,17.30
2018-04-02T06:09:40.302Z,13.35
2018-04-02T06:12:07.841Z,16.87
2018-04-02T06:14:35.387Z,16.00
2018-04-02T06:17:02.986Z,17.85
2018-04-02T06:19:30.524Z,9.30
2018-04-02T06:21:58.095Z,9.63
2018-04-02T06:24:25.639Z,10.02
2018-04-02T06:26:53.618Z,8.55
2018-04-02T06:29:21.208Z,12.45
2018-04-02T06:31:48.785Z,13.75
2018-04-02T06:34:16.706Z,17.25
2018-04-02T06:36:44.256Z,9.70
2018-04-02T06:39:11.818Z,13.65
2018-04-02T06:41:39.391Z,15.30
2018-04-02T06:44:06.934Z,12.05
2018-04-02T06:46:34.509Z,11.05
2018-04-02T06:49:02.051Z,13.88
2018-04-02T06:51:29.598Z,8.05
2018-04-02T06:53:57.174Z,9.60
2018-04-02T06:56:24.725Z,9.80
2018-04-02T06:58:52.321Z,11.95
2018-04-02T07:01:19.886Z,9.20
2018-04-02T07:03:47.450Z,9.35
2018-04-02T07:06:15.023Z,8.90
2018-04-02T07:08:42.583Z,13.30
2018-04-02T07:11:10.307Z,9.88
2018-04-02T07:13:37.854Z,8.52
2018-04-02T07:16:05.407Z,8.98
2018-04-02T07:18:32.976Z,8.48
2018-04-02T07:21:00.528Z,9.40
2018-04-02T07:23:28.302Z,11.23
2018-04-02T07:25:55.966Z,19.65
2018-04-02T07:28:23.522Z,10.57
2018-04-02T07:30:51.118Z,11.25
2018-04-02T07:33:18.667Z,9.80
2018-04-02T07:35:46.394Z,8.10
2018-04-02T07:38:13.970Z,12.10
2018-04-02T07:40:41.574Z,7.32
2018-04-02T07:43:09.173Z,11.93
2018-04-02T07:45:36.750Z,9.40
2018-04-02T07:48:04.884Z,12.80
2018-04-02T07:50:32.430Z,9.33
2018-04-02T07:53:00.264Z,13.13
2018-04-02T07:55:30.610Z,8.63
2018-04-02T07:57:58.183Z,9.50
2018-04-02T08:00:26.198Z,10.50
2018-04-02T08:02:54.033Z,8.40
2018-04-02T08:05:21.594Z,9.50
2018-04-02T08:07:49.170Z,7.30
2018-04-02T08:10:16.718Z,7.87
2018-04-02T08:12:44.448Z,9.70
2018-04-02T08:15:13.277Z,9.20
2018-04-02T08:17:40.956Z,9.00
2018-04-02T08:20:08.544Z,5.97
2018-04-02T08:22:36.118Z,8.70
2018-04-02T08:25:03.971Z,13.17
2018-04-02T08:27:31.526Z,6.50
2018-04-02T08:29:59.074Z,7.93
2018-04-02T08:32:27.582Z,8.73
2018-04-02T08:34:55.138Z,10.13
2018-04-02T08:37:22.848Z,3.67
2018-04-02T08:39:50.402Z,5.33
2018-04-02T08:42:17.961Z,5.97
2018-04-02T08:44:45.548Z,4.47
2018-04-02T08:47:13.511Z,6.20
2018-04-02T08:49:41.097Z,6.77
2018-04-02T08:52:08.643Z,5.00
2018-04-02T08:54:36.290Z,10.43
2018-04-02T08:57:03.857Z,7.33
2018-04-02T08:59:31.406Z,8.30
2018-04-02T09:01:59.425Z,5.70
2018-04-02T09:04:26.990Z,6.93
2018-04-02T09:06:54.543Z,8.80
2018-04-02T09:09:22.147Z,6.87
2018-04-02T09:11:49.753Z,5.73
2018-04-02T09:14:17.350Z,3.50
2018-04-02T09:16:44.906Z,3.77
2018-04-02T09:19:12.663Z,3.10
2018-04-02T09:21:40.263Z,5.90
2018-04-02T09:24:07.978Z,9.63
2018-04-02T09:26:37.030Z,4.87
2018-04-02T09:29:04.786Z,4.30
2018-04-02T09:31:32.805Z,4.33
2018-04-02T09:34:00.857Z,2.50
2018-04-02T09:36:29.304Z,3.80
2018-04-02T09:38:57.481Z,2.50
2018-04-02T09:41:25.138Z,5.63
2018-04-02T09:43:53.006Z,1.97
2018-04-02T09:46:21.226Z,2.77
2018-04-02T09:48:48.942Z,2.90
2018-04-02T09:51:17.373Z,4.93
2018-04-02T09:53:44.982Z,4.57
2018-04-02T09:56:12.562Z,5.37
2018-04-02T09:58:40.191Z,6.50
2018-04-02T10:01:08.082Z,5.80
2018-04-02T10:03:39.018Z,10.50
2018-04-02T10:06:06.774Z,3.00
2018-04-02T10:08:34.351Z,5.63
2018-04-02T10:11:01.948Z,3.33
2018-04-02T10:13:29.495Z,6.03
2018-04-02T10:15:57.343Z,4.90
2018-04-02T10:18:24.907Z,6.03
2018-04-02T10:20:52.752Z,7.50
2018-04-02T10:23:20.347Z,3.90
2018-04-02T10:25:48.887Z,4.67
2018-04-02T10:28:16.676Z,3.63
2018-04-02T10:30:44.323Z,3.43
2018-04-02T10:33:11.818Z,2.50
2018-04-02T10:35:39.438Z,5.40
2018-04-02T10:38:07.092Z,3.93
2018-04-02T10:40:34.702Z,4.23
2018-04-02T10:43:02.260Z,2.47
2018-04-02T10:45:29.831Z,4.90
2018-04-02T10:47:57.678Z,2.80
2018-04-02T10:50:25.243Z,2.37
2018-04-02T10:52:53.088Z,4.23
2018-04-02T10:55:20.678Z,4.23
2018-04-02T10:57:48.319Z,3.23
2018-04-02T11:00:15.906Z,4.70
2018-04-02T11:02:43.452Z,3.83
2018-04-02T11:05:11.371Z,4.10
2018-04-02T11:07:38.934Z,3.17
2018-04-02T11:10:06.494Z,2.13
2018-04-02T11:12:34.253Z,3.83
2018-04-02T11:15:01.823Z,3.47
2018-04-02T11:17:29.884Z,4.00
2018-04-02T11:19:57.435Z,3.30
2018-04-02T11:22:25.048Z,3.03
2018-04-02T11:24:52.859Z,3.00
2018-04-02T11:27:20.735Z,15.30
2018-04-02T11:29:48.500Z,3.47
2018-04-02T11:32:16.163Z,3.93
2018-04-02T11:34:44.130Z,2.73
2018-04-02T11:37:11.736Z,2.90
2018-04-02T11:39:39.302Z,4.77
2018-04-02T11:42:06.902Z,7.40
2018-04-02T11:44:34.675Z,5.60
2018-04-02T11:47:02.224Z,6.30
2018-04-02T11:49:29.851Z,2.67
2018-04-02T11:51:57.739Z,4.13
2018-04-02T11:54:26.250Z,3.90
2018-04-02T11:56:54.002Z,3.80
2018-04-02T11:59:21.873Z,3.43
2018-04-02T12:01:50.650Z,5.10
2018-04-02T12:04:18.313Z,3.87
2018-04-02T12:06:46.123Z,3.40
2018-04-02T12:09:14.665Z,5.87
2018-04-02T12:11:42.331Z,2.30
2018-04-02T12:14:09.942Z,3.03
2018-04-02T12:16:37.501Z,2.03
2018-04-02T12:19:05.431Z,4.33
2018-04-02T12:21:33.000Z,6.90
2018-04-02T12:24:00.594Z,5.20
2018-04-02T12:26:28.274Z,2.33
2018-04-02T12:28:55.845Z,2.80
2018-04-02T12:31:23.607Z,3.97
2018-04-02T12:33:51.146Z,3.10
2018-04-02T12:36:18.701Z,4.87
2018-04-02T12:38:46.305Z,4.33
2018-04-02T12:41:13.850Z,3.13
2018-04-02T12:43:41.671Z,2.23
2018-04-02T12:46:09.230Z,4.70
2018-04-02T12:48:36.770Z,2.67
2018-04-02T12:51:04.423Z,2.30
2018-04-02T12:53:31.983Z,2.43
2018-04-02T12:55:59.866Z,2.33
2018-04-02T12:58:27.496Z,1.57
2018-04-02T13:00:55.098Z,1.90
2018-04-02T13:03:22.678Z,4.27
2018-04-02T13:05:50.231Z,3.00
2018-04-02T13:08:17.839Z,3.40
2018-04-02T13:10:45.386Z,3.37
2018-04-02T13:13:12.942Z,3.10
2018-04-02T13:15:40.554Z,1.60
2018-04-02T13:18:08.111Z,6.67
2018-04-02T13:20:36.022Z,3.23
2018-04-02T13:23:03.576Z,4.50
2018-04-02T13:25:31.131Z,5.87
2018-04-02T13:27:58.711Z,2.67
2018-04-02T13:30:26.691Z,2.60
2018-04-02T13:32:54.656Z,2.33
2018-04-02T13:35:22.320Z,2.73
2018-04-02T13:37:50.083Z,5.43
2018-04-02T13:40:17.735Z,4.60
2018-04-02T13:42:45.294Z,2.30
2018-04-02T13:45:12.925Z,2.67
2018-04-02T13:47:40.628Z,2.90
2018-04-02T13:50:08.210Z,3.37
2018-04-02T13:52:35.812Z,3.87
2018-04-02T13:55:03.513Z,3.73
2018-04-02T13:57:31.106Z,4.20
2018-04-02T13:59:58.677Z,3.07
2018-04-02T14:02:26.508Z,2.97
2018-04-02T14:04:54.361Z,6.10
2018-04-02T14:07:22.226Z,2.50
2018-04-02T14:09:50.002Z,3.83
2018-04-02T14:12:17.547Z,3.33
2018-04-02T14:14:45.146Z,6.13
2018-04-02T14:17:12.724Z,1.90
2018-04-02T14:19:40.432Z,2.30
2018-04-02T14:22:08.030Z,3.87
2018-04-02T14:24:35.654Z,3.40
2018-04-02T14:27:03.207Z,2.07
2018-04-02T14:29:30.786Z,3.57
2018-04-02T14:31:58.336Z,2.30
2018-04-02T14:34:26.373Z,2.13
2018-04-02T14:36:54.017Z,2.83
2018-04-02T14:39:21.662Z,1.80
2018-04-02T14:41:49.501Z,3.20
2018-04-02T14:44:17.291Z,6.70
2018-04-02T14:46:46.096Z,2.47
2018-04-02T14:49:13.891Z,1.80
2018-04-02T14:51:41.746Z,5.10
2018-04-02T14:54:10.972Z,4.10
2018-04-02T14:56:39.259Z,3.43
2018-04-02T14:59:07.475Z,3.50
2018-04-02T15:01:35.415Z,2.77
2018-04-02T15:04:06.237Z,3.90
2018-04-02T15:06:33.890Z,4.60
2018-04-02T15:09:01.756Z,3.30
2018-04-02T15:11:29.930Z,2.10
2018-04-02T15:13:58.614Z,2.83
2018-04-02T15:16:27.509Z,1.90
2018-04-02T15:18:55.151Z,3.80
2018-04-02T15:21:22.746Z,5.80
2018-04-02T15:23:51.003Z,2.13
2018-04-02T15:26:19.381Z,4.17
2018-04-02T15:28:47.248Z,4.30
2018-04-02T15:31:14.986Z,2.20
2018-04-02T15:33:42.636Z,3.70
2018-04-02T15:36:10.643Z,2.47
2018-04-02T15:38:39.532Z,5.03
2018-04-02T15:41:07.106Z,3.30
2018-04-02T15:43:34.683Z,3.30
2018-04-02T15:46:02.621Z,1.53
2018-04-02T15:48:30.385Z,2.63
2018-04-02T15:50:58.153Z,5.83
2018-04-02T15:53:26.117Z,2.27
2018-04-02T15:55:54.189Z,2.23
2018-04-02T15:58:22.903Z,2.40
2018-04-02T16:00:51.284Z,1.57
2018-04-02T16:03:21.343Z,1.93
2018-04-02T16:05:49.240Z,2.33
2018-04-02T16:08:17.207Z,4.80
2018-04-02T16:10:45.323Z,2.20
2018-04-02T16:13:13.453Z,2.70
2018-04-02T16:15:41.422Z,4.60
2018-04-02T16:18:10.005Z,1.50
2018-04-02T16:20:38.077Z,1.90
2018-04-02T16:23:06.046Z,2.30
2018-04-02T16:25:34.117Z,1.53
2018-04-02T16:28:01.983Z,4.03
2018-04-02T16:30:29.747Z,1.80
2018-04-02T16:32:57.741Z,5.53
2018-04-02T16:35:25.686Z,3.07
2018-04-02T16:37:53.767Z,2.30
2018-04-02T16:40:22.033Z,3.07
2018-04-02T16:42:49.898Z,3.97
2018-04-02T16:45:17.814Z,1.83
2018-04-02T16:47:45.700Z,3.10
2018-04-02T16:50:13.609Z,4.83
2018-04-02T16:52:41.571Z,6.40
2018-04-02T16:55:09.542Z,3.83
2018-04-02T16:57:37.744Z,1.87
2018-04-02T17:00:05.570Z,4.20
2018-04-02T17:02:33.757Z,1.57
2018-04-02T17:05:01.745Z,2.30
2018-04-02T17:07:29.661Z,1.60
2018-04-02T17:09:57.662Z,2.57
2018-04-02T17:12:25.427Z,2.90
2018-04-02T17:14:53.733Z,4.43
2018-04-02T17:17:21.671Z,3.43
2018-04-02T17:19:49.676Z,4.90
2018-04-02T17:22:18.020Z,2.70
2018-04-02T17:24:45.929Z,6.67
2018-04-02T17:27:13.743Z,7.70
2018-04-02T17:29:41.620Z,3.90
2018-04-02T17:32:09.483Z,4.40
2018-04-02T17:34:37.661Z,2.17
2018-04-02T17:37:05.938Z,1.90
2018-04-02T17:39:35.539Z,3.73
2018-04-02T17:42:03.610Z,2.60
2018-04-02T17:44:31.465Z,2.30
2018-04-02T17:46:59.635Z,3.30
2018-04-02T17:49:27.722Z,2.50
2018-04-02T17:51:56.393Z,2.53
2018-04-02T17:54:24.992Z,8.63
2018-04-02T17:56:53.022Z,2.90
2018-04-02T17:59:21.135Z,3.37
2018-04-02T18:01:49.199Z,4.40
2018-04-02T18:04:17.176Z,5.00
2018-04-02T18:06:45.100Z,4.07
2018-04-02T18:09:13.117Z,3.10
2018-04-02T18:11:40.977Z,3.10
2018-04-02T18:14:09.082Z,4.50
2018-04-02T18:16:37.225Z,3.60
2018-04-02T18:19:05.193Z,2.50
2018-04-02T18:21:34.101Z,3.73
2018-04-02T18:24:02.053Z,4.37
2018-04-02T18:26:29.918Z,3.80
2018-04-02T18:28:57.925Z,3.60
2018-04-02T18:31:25.857Z,4.70
2018-04-02T18:33:53.842Z,2.17
2018-04-02T18:36:21.931Z,3.10
2018-04-02T18:38:49.866Z,3.57
2018-04-02T18:41:18.450Z,2.30
2018-04-02T18:43:46.319Z,10.13
2018-04-02T18:46:14.953Z,2.87
2018-04-02T18:48:43.072Z,3.13
2018-04-02T18:51:11.042Z,11.87
2018-04-02T18:53:39.018Z,4.03
2018-04-02T18:56:07.721Z,3.10
2018-04-02T18:58:35.771Z,4.97
2018-04-02T19:01:03.690Z,2.47
2018-04-02T19:03:32.543Z,8.00
2018-04-02T19:06:00.596Z,2.97
2018-04-02T19:08:28.565Z,2.47
2018-04-02T19:10:56.534Z,3.87
2018-04-02T19:13:24.483Z,5.20
2018-04-02T19:15:52.345Z,2.90
2018-04-02T19:18:20.236Z,7.83
2018-04-02T19:20:48.205Z,2.93
2018-04-02T19:23:17.225Z,3.80
2018-04-02T19:25:46.123Z,3.73
2018-04-02T19:28:14.032Z,5.67
2018-04-02T19:30:42.132Z,4.83
2018-04-02T19:33:11.337Z,4.27
2018-04-02T19:35:39.409Z,4.80
2018-04-02T19:38:07.367Z,3.60
2018-04-02T19:40:35.234Z,6.10
2018-04-02T19:43:04.008Z,5.13
2018-04-02T19:45:32.399Z,6.67
2018-04-02T19:48:00.486Z,4.23
2018-04-02T19:50:28.510Z,5.70
2018-04-02T19:52:56.514Z,6.30
2018-04-02T19:55:24.891Z,4.37
2018-04-02T19:57:53.270Z,4.17
2018-04-02T20:00:21.587Z,6.00
2018-04-02T20:02:49.513Z,5.10
2018-04-02T20:05:17.383Z,5.20
2018-04-02T20:07:45.354Z,9.03
2018-04-02T20:10:14.240Z,8.83
2018-04-02T20:12:42.316Z,6.63
2018-04-02T20:15:10.279Z,7.90
2018-04-02T20:17:38.353Z,3.83
2018-04-02T20:20:06.320Z,6.60
2018-04-02T20:22:34.187Z,5.43
2018-04-02T20:25:02.422Z,4.67
2018-04-02T20:27:30.289Z,11.30
2018-04-02T20:29:58.196Z,5.63
2018-04-02T20:32:26.164Z,5.37
2018-04-02T20:34:54.545Z,4.53
2018-04-02T20:37:22.819Z,5.23
2018-04-02T20:39:50.789Z,9.13
2018-04-02T20:42:18.860Z,3.17
2018-04-02T20:44:46.706Z,3.33
2018-04-02T20:47:14.504Z,5.93
2018-04-02T20:49:42.866Z,8.13
2018-04-02T20:52:10.808Z,7.40
2018-04-02T20:54:38.604Z,4.53
2018-04-02T20:57:06.404Z,4.90
2018-04-02T20:59:34.248Z,4.13
2018-04-02T21:02:02.201Z,3.10
2018-04-02T21:04:31.803Z,3.73
2018-04-02T21:07:00.493Z,7.00
2018-04-02T21:09:28.463Z,2.53
2018-04-02T21:12:00.138Z,5.30
2018-04-02T21:14:28.700Z,3.47
2018-04-02T21:16:56.669Z,3.67
2018-04-02T21:19:24.644Z,2.23
2018-04-02T21:21:52.607Z,3.00
2018-04-02T21:24:20.475Z,2.80
2018-04-02T21:26:48.239Z,5.40
2018-04-02T21:29:16.208Z,4.43
2018-04-02T21:31:44.074Z,4.23
2018-04-02T21:34:12.042Z,3.03
2018-04-02T21:36:39.909Z,3.57
2018-04-02T21:39:08.281Z,3.80
2018-04-02T21:41:36.159Z,1.90
2018-04-02T21:44:04.124Z,3.80
2018-04-02T21:46:31.935Z,4.20
2018-04-02T21:48:59.856Z,3.73
2018-04-02T21:51:27.885Z,3.03
2018-04-02T21:53:55.572Z,3.20
2018-04-02T21:56:23.456Z,2.90
2018-04-02T21:58:51.529Z,3.63
2018-04-02T22:01:19.496Z,3.80
2018-04-02T22:03:47.621Z,3.70
2018-04-02T22:06:27.310Z,3.10
2018-04-02T22:08:55.231Z,3.15
2018-04-02T22:11:23.974Z,2.77
2018-04-02T22:13:52.550Z,3.60
2018-04-02T22:16:20.258Z,4.47
2018-04-02T22:18:47.976Z,4.13
2018-04-02T22:21:16.007Z,3.97
2018-04-02T22:23:43.593Z,2.80
2018-04-02T22:26:11.348Z,4.47
2018-04-02T22:28:39.089Z,3.13
2018-04-02T22:31:06.901Z,2.93
2018-04-02T22:33:34.707Z,3.50
2018-04-02T22:36:02.402Z,11.40
2018-04-02T22:38:30.024Z,7.53
2018-04-02T22:40:57.598Z,7.03
2018-04-02T22:43:25.423Z,4.05
2018-04-02T22:45:53.013Z,6.15
2018-04-02T22:48:21.307Z,3.53
2018-04-02T22:50:48.871Z,5.93
2018-04-02T22:53:17.203Z,3.28
2018-04-02T22:55:44.803Z,4.87
2018-04-02T22:58:12.509Z,3.37
2018-04-02T23:00:40.069Z,4.10
2018-04-02T23:03:07.647Z,4.05
2018-04-02T23:05:35.291Z,4.18
2018-04-02T23:08:02.872Z,5.35
2018-04-02T23:10:30.617Z,3.28
2018-04-02T23:12:58.167Z,5.80
2018-04-02T23:15:25.735Z,6.90
2018-04-02T23:17:53.335Z,5.72
2018-04-02T23:20:20.890Z,3.20
2018-04-02T23:22:53.040Z,3.80
2018-04-02T23:25:20.624Z,3.80
2018-04-02T23:27:48.334Z,4.30
2018-04-02T23:30:16.012Z,4.55
2018-04-02T23:32:43.612Z,8.98
2018-04-02T23:35:11.215Z,3.97
2018-04-02T23:37:38.775Z,3.67
2018-04-02T23:40:06.335Z,4.90
2018-04-02T23:42:33.946Z,6.05
2018-04-02T23:45:01.625Z,5.30
2018-04-02T23:47:29.531Z,3.33
2018-04-02T23:49:57.088Z,4.85
2018-04-02T23:52:24.642Z,5.90
2018-04-02T23:54:52.290Z,3.47
2018-04-02T23:57:20.631Z,4.40
2018-04-02T23:59:48.467Z,3.65
